sensor_id;sensor_type;location;lat;lon;timestamp;P1;durP1;ratioP1;P2;durP2;ratioP2
80584;SDS011;70137;56.482;9.154;2023-07-13T00:00:40;9.48;;;4.15;;
80584;SDS011;70137;56.482;9.154;2023-07-13T00:03:06;10.10;;;3.70;;
80584;SDS011;70137;56.482;9.154;2023-07-13T00:05:31;14.25;;;3.88;;
80584;SDS011;70137;56.482;9.154;2023-07-13T00:07:57;11.60;;;3.70;;
80584;SDS011;70137;56.482;9.154;2023-07-13T00:10:22;8.40;;;3.38;;
80584;SDS011;70137;56.482;9.154;2023-07-13T00:12:48;8.07;;;3.70;;
80584;SDS011;70137;56.482;9.154;2023-07-13T00:15:15;12.55;;;4.03;;
80584;SDS011;70137;56.482;9.154;2023-07-13T00:17:47;8.57;;;3.83;;
80584;SDS011;70137;56.482;9.154;2023-07-13T00:20:17;9.65;;;4.47;;
80584;SDS011;70137;56.482;9.154;2023-07-13T00:22:42;8.75;;;4.00;;
80584;SDS011;70137;56.482;9.154;2023-07-13T00:25:09;13.45;;;4.15;;
80584;SDS011;70137;56.482;9.154;2023-07-13T00:27:36;8.57;;;3.75;;
80584;SDS011;70137;56.482;9.154;2023-07-13T00:30:02;9.02;;;4.22;;
80584;SDS011;70137;56.482;9.154;2023-07-13T00:32:28;11.93;;;4.15;;
80584;SDS011;70137;56.482;9.154;2023-07-13T00:34:54;18.13;;;4.57;;
80584;SDS011;70137;56.482;9.154;2023-07-13T00:37:20;9.18;;;4.03;;
80584;SDS011;70137;56.482;9.154;2023-07-13T00:39:45;8.15;;;3.70;;
80584;SDS011;70137;56.482;9.154;2023-07-13T00:42:11;9.85;;;3.85;;
80584;SDS011;70137;56.482;9.154;2023-07-13T00:44:36;12.40;;;3.75;;
80584;SDS011;70137;56.482;9.154;2023-07-13T00:47:04;8.68;;;3.75;;
80584;SDS011;70137;56.482;9.154;2023-07-13T00:49:30;8.80;;;4.28;;
80584;SDS011;70137;56.482;9.154;2023-07-13T00:52:00;10.45;;;3.80;;
80584;SDS011;70137;56.482;9.154;2023-07-13T00:54:31;12.43;;;4.10;;
80584;SDS011;70137;56.482;9.154;2023-07-13T00:57:09;8.60;;;3.70;;
80584;SDS011;70137;56.482;9.154;2023-07-13T00:59:39;9.23;;;3.95;;
80584;SDS011;70137;56.482;9.154;2023-07-13T01:02:08;8.15;;;3.63;;
80584;SDS011;70137;56.482;9.154;2023-07-13T01:04:34;9.32;;;3.65;;
80584;SDS011;70137;56.482;9.154;2023-07-13T01:06:59;10.18;;;3.75;;
80584;SDS011;70137;56.482;9.154;2023-07-13T01:09:25;8.63;;;3.45;;
80584;SDS011;70137;56.482;9.154;2023-07-13T01:11:51;10.73;;;3.42;;
80584;SDS011;70137;56.482;9.154;2023-07-13T01:14:17;10.80;;;3.97;;
80584;SDS011;70137;56.482;9.154;2023-07-13T01:16:44;9.60;;;3.90;;
80584;SDS011;70137;56.482;9.154;2023-07-13T01:19:35;7.28;;;3.65;;
80584;SDS011;70137;56.482;9.154;2023-07-13T01:22:11;7.35;;;3.60;;
80584;SDS011;70137;56.482;9.154;2023-07-13T01:24:40;9.88;;;3.63;;
80584;SDS011;70137;56.482;9.154;2023-07-13T01:27:08;11.43;;;3.83;;
80584;SDS011;70137;56.482;9.154;2023-07-13T01:29:36;9.45;;;3.45;;
80584;SDS011;70137;56.482;9.154;2023-07-13T01:32:10;11.05;;;3.95;;
80584;SDS011;70137;56.482;9.154;2023-07-13T01:34:38;12.63;;;3.50;;
80584;SDS011;70137;56.482;9.154;2023-07-13T01:37:07;10.30;;;3.67;;
80584;SDS011;70137;56.482;9.154;2023-07-13T01:39:33;9.60;;;3.42;;
80584;SDS011;70137;56.482;9.154;2023-07-13T01:41:59;8.07;;;3.63;;
80584;SDS011;70137;56.482;9.154;2023-07-13T01:44:25;11.07;;;3.50;;
80584;SDS011;70137;56.482;9.154;2023-07-13T01:46:50;10.05;;;3.55;;
80584;SDS011;70137;56.482;9.154;2023-07-13T01:49:16;8.10;;;3.63;;
80584;SDS011;70137;56.482;9.154;2023-07-13T01:51:41;11.95;;;4.10;;
80584;SDS011;70137;56.482;9.154;2023-07-13T01:54:07;9.02;;;3.38;;
80584;SDS011;70137;56.482;9.154;2023-07-13T01:56:32;10.07;;;3.97;;
80584;SDS011;70137;56.482;9.154;2023-07-13T01:58:57;11.02;;;4.15;;
80584;SDS011;70137;56.482;9.154;2023-07-13T02:03:53;9.23;;;3.75;;
80584;SDS011;70137;56.482;9.154;2023-07-13T02:06:18;10.38;;;4.30;;
80584;SDS011;70137;56.482;9.154;2023-07-13T02:08:44;14.65;;;4.15;;
80584;SDS011;70137;56.482;9.154;2023-07-13T02:11:09;10.15;;;4.07;;
80584;SDS011;70137;56.482;9.154;2023-07-13T02:13:35;13.35;;;4.25;;
80584;SDS011;70137;56.482;9.154;2023-07-13T02:16:00;7.90;;;3.72;;
80584;SDS011;70137;56.482;9.154;2023-07-13T02:18:26;7.78;;;4.03;;
80584;SDS011;70137;56.482;9.154;2023-07-13T02:20:51;10.93;;;4.68;;
80584;SDS011;70137;56.482;9.154;2023-07-13T02:23:17;12.45;;;4.40;;
80584;SDS011;70137;56.482;9.154;2023-07-13T02:25:43;8.82;;;4.53;;
80584;SDS011;70137;56.482;9.154;2023-07-13T02:28:08;9.68;;;4.13;;
80584;SDS011;70137;56.482;9.154;2023-07-13T02:30:33;11.85;;;4.35;;
80584;SDS011;70137;56.482;9.154;2023-07-13T02:33:00;11.73;;;4.15;;
80584;SDS011;70137;56.482;9.154;2023-07-13T02:35:25;6.57;;;3.92;;
80584;SDS011;70137;56.482;9.154;2023-07-13T02:37:51;10.02;;;4.45;;
80584;SDS011;70137;56.482;9.154;2023-07-13T02:40:16;13.32;;;4.22;;
80584;SDS011;70137;56.482;9.154;2023-07-13T02:42:42;9.88;;;4.25;;
80584;SDS011;70137;56.482;9.154;2023-07-13T02:45:08;12.38;;;4.15;;
80584;SDS011;70137;56.482;9.154;2023-07-13T02:47:34;10.93;;;4.32;;
80584;SDS011;70137;56.482;9.154;2023-07-13T02:50:00;8.45;;;3.92;;
80584;SDS011;70137;56.482;9.154;2023-07-13T02:52:26;8.68;;;3.50;;
80584;SDS011;70137;56.482;9.154;2023-07-13T02:54:52;6.68;;;3.13;;
80584;SDS011;70137;56.482;9.154;2023-07-13T02:57:17;6.53;;;2.40;;
80584;SDS011;70137;56.482;9.154;2023-07-13T02:59:42;3.50;;;2.38;;
80584;SDS011;70137;56.482;9.154;2023-07-13T03:02:09;3.33;;;2.20;;
80584;SDS011;70137;56.482;9.154;2023-07-13T03:04:35;3.72;;;2.20;;
80584;SDS011;70137;56.482;9.154;2023-07-13T03:07:01;5.80;;;2.30;;
80584;SDS011;70137;56.482;9.154;2023-07-13T03:09:27;3.08;;;2.05;;
80584;SDS011;70137;56.482;9.154;2023-07-13T03:11:55;4.32;;;2.10;;
80584;SDS011;70137;56.482;9.154;2023-07-13T03:14:24;4.28;;;2.20;;
80584;SDS011;70137;56.482;9.154;2023-07-13T03:16:49;4.43;;;2.30;;
80584;SDS011;70137;56.482;9.154;2023-07-13T03:19:15;4.40;;;1.95;;
80584;SDS011;70137;56.482;9.154;2023-07-13T03:21:40;4.28;;;2.47;;
80584;SDS011;70137;56.482;9.154;2023-07-13T03:24:06;8.13;;;2.20;;
80584;SDS011;70137;56.482;9.154;2023-07-13T03:26:31;6.28;;;2.40;;
80584;SDS011;70137;56.482;9.154;2023-07-13T03:28:57;4.15;;;2.90;;
80584;SDS011;70137;56.482;9.154;2023-07-13T03:31:24;6.65;;;2.90;;
80584;SDS011;70137;56.482;9.154;2023-07-13T03:33:52;5.55;;;3.30;;
80584;SDS011;70137;56.482;9.154;2023-07-13T03:36:19;6.15;;;3.55;;
80584;SDS011;70137;56.482;9.154;2023-07-13T03:38:50;6.40;;;3.67;;
80584;SDS011;70137;56.482;9.154;2023-07-13T03:41:17;7.95;;;4.18;;
80584;SDS011;70137;56.482;9.154;2023-07-13T03:43:43;11.02;;;4.00;;
80584;SDS011;70137;56.482;9.154;2023-07-13T03:46:08;7.00;;;3.90;;
80584;SDS011;70137;56.482;9.154;2023-07-13T03:48:34;7.07;;;3.70;;
80584;SDS011;70137;56.482;9.154;2023-07-13T03:51:00;6.65;;;3.85;;
80584;SDS011;70137;56.482;9.154;2023-07-13T03:53:26;10.55;;;3.97;;
80584;SDS011;70137;56.482;9.154;2023-07-13T03:55:51;6.95;;;3.10;;
80584;SDS011;70137;56.482;9.154;2023-07-13T03:58:28;9.48;;;4.05;;
80584;SDS011;70137;56.482;9.154;2023-07-13T04:00:55;9.73;;;4.47;;
80584;SDS011;70137;56.482;9.154;2023-07-13T04:03:22;8.38;;;4.70;;
80584;SDS011;70137;56.482;9.154;2023-07-13T04:05:47;10.35;;;4.28;;
80584;SDS011;70137;56.482;9.154;2023-07-13T04:08:13;9.35;;;4.38;;
80584;SDS011;70137;56.482;9.154;2023-07-13T04:10:38;17.63;;;5.10;;
80584;SDS011;70137;56.482;9.154;2023-07-13T04:13:04;12.77;;;5.03;;
80584;SDS011;70137;56.482;9.154;2023-07-13T04:15:30;10.63;;;5.13;;
80584;SDS011;70137;56.482;9.154;2023-07-13T04:17:57;10.23;;;4.68;;
80584;SDS011;70137;56.482;9.154;2023-07-13T04:20:23;7.50;;;4.38;;
80584;SDS011;70137;56.482;9.154;2023-07-13T04:22:50;11.48;;;4.40;;
80584;SDS011;70137;56.482;9.154;2023-07-13T04:25:16;9.55;;;4.22;;
80584;SDS011;70137;56.482;9.154;2023-07-13T04:27:41;8.65;;;4.47;;
80584;SDS011;70137;56.482;9.154;2023-07-13T04:30:07;6.85;;;4.15;;
80584;SDS011;70137;56.482;9.154;2023-07-13T04:32:33;12.65;;;4.30;;
80584;SDS011;70137;56.482;9.154;2023-07-13T04:34:58;7.40;;;3.88;;
80584;SDS011;70137;56.482;9.154;2023-07-13T04:37:24;6.57;;;3.70;;
80584;SDS011;70137;56.482;9.154;2023-07-13T04:39:50;7.07;;;3.80;;
80584;SDS011;70137;56.482;9.154;2023-07-13T04:42:16;8.52;;;3.78;;
80584;SDS011;70137;56.482;9.154;2023-07-13T04:44:42;11.70;;;3.97;;
80584;SDS011;70137;56.482;9.154;2023-07-13T04:47:12;10.43;;;3.72;;
80584;SDS011;70137;56.482;9.154;2023-07-13T04:49:37;6.53;;;3.42;;
80584;SDS011;70137;56.482;9.154;2023-07-13T04:52:02;7.60;;;3.13;;
80584;SDS011;70137;56.482;9.154;2023-07-13T04:54:28;9.27;;;3.70;;
80584;SDS011;70137;56.482;9.154;2023-07-13T04:56:53;7.03;;;3.42;;
80584;SDS011;70137;56.482;9.154;2023-07-13T04:59:19;7.18;;;3.20;;
80584;SDS011;70137;56.482;9.154;2023-07-13T05:01:44;7.00;;;3.53;;
80584;SDS011;70137;56.482;9.154;2023-07-13T05:04:10;8.73;;;3.47;;
80584;SDS011;70137;56.482;9.154;2023-07-13T05:06:36;6.70;;;3.10;;
80584;SDS011;70137;56.482;9.154;2023-07-13T05:09:01;6.30;;;3.33;;
80584;SDS011;70137;56.482;9.154;2023-07-13T05:11:26;9.90;;;2.90;;
80584;SDS011;70137;56.482;9.154;2023-07-13T05:13:52;8.48;;;3.00;;
80584;SDS011;70137;56.482;9.154;2023-07-13T05:16:17;11.48;;;2.83;;
80584;SDS011;70137;56.482;9.154;2023-07-13T05:18:44;5.05;;;2.60;;
80584;SDS011;70137;56.482;9.154;2023-07-13T05:21:09;7.00;;;2.55;;
80584;SDS011;70137;56.482;9.154;2023-07-13T05:23:36;7.20;;;2.80;;
80584;SDS011;70137;56.482;9.154;2023-07-13T05:26:02;8.75;;;3.70;;
80584;SDS011;70137;56.482;9.154;2023-07-13T05:28:28;10.25;;;3.13;;
80584;SDS011;70137;56.482;9.154;2023-07-13T05:30:53;8.27;;;2.90;;
80584;SDS011;70137;56.482;9.154;2023-07-13T05:33:19;7.18;;;2.90;;
80584;SDS011;70137;56.482;9.154;2023-07-13T05:35:45;8.77;;;2.78;;
80584;SDS011;70137;56.482;9.154;2023-07-13T05:38:11;10.07;;;2.70;;
80584;SDS011;70137;56.482;9.154;2023-07-13T05:40:37;5.80;;;2.65;;
80584;SDS011;70137;56.482;9.154;2023-07-13T05:43:02;7.03;;;2.55;;
80584;SDS011;70137;56.482;9.154;2023-07-13T05:45:28;8.43;;;2.90;;
80584;SDS011;70137;56.482;9.154;2023-07-13T05:47:54;6.97;;;3.25;;
80584;SDS011;70137;56.482;9.154;2023-07-13T05:50:19;11.30;;;3.20;;
80584;SDS011;70137;56.482;9.154;2023-07-13T05:52:44;9.45;;;3.33;;
80584;SDS011;70137;56.482;9.154;2023-07-13T05:55:10;5.95;;;2.72;;
80584;SDS011;70137;56.482;9.154;2023-07-13T05:57:37;8.68;;;2.80;;
80584;SDS011;70137;56.482;9.154;2023-07-13T06:00:02;9.23;;;2.88;;
80584;SDS011;70137;56.482;9.154;2023-07-13T06:02:28;8.55;;;2.55;;
80584;SDS011;70137;56.482;9.154;2023-07-13T06:04:53;12.02;;;2.92;;
80584;SDS011;70137;56.482;9.154;2023-07-13T06:07:19;10.30;;;3.17;;
80584;SDS011;70137;56.482;9.154;2023-07-13T06:09:44;7.22;;;2.65;;
80584;SDS011;70137;56.482;9.154;2023-07-13T06:12:10;5.80;;;2.65;;
80584;SDS011;70137;56.482;9.154;2023-07-13T06:14:35;11.15;;;2.70;;
80584;SDS011;70137;56.482;9.154;2023-07-13T06:17:01;8.48;;;2.85;;
80584;SDS011;70137;56.482;9.154;2023-07-13T06:19:26;9.75;;;3.13;;
80584;SDS011;70137;56.482;9.154;2023-07-13T06:21:52;9.05;;;2.85;;
80584;SDS011;70137;56.482;9.154;2023-07-13T06:24:17;10.48;;;2.78;;
80584;SDS011;70137;56.482;9.154;2023-07-13T06:26:43;11.18;;;2.90;;
80584;SDS011;70137;56.482;9.154;2023-07-13T06:29:08;12.63;;;2.80;;
80584;SDS011;70137;56.482;9.154;2023-07-13T06:31:33;8.02;;;2.60;;
80584;SDS011;70137;56.482;9.154;2023-07-13T06:33:59;9.93;;;2.88;;
80584;SDS011;70137;56.482;9.154;2023-07-13T06:36:24;9.27;;;2.78;;
80584;SDS011;70137;56.482;9.154;2023-07-13T06:38:50;11.73;;;2.85;;
80584;SDS011;70137;56.482;9.154;2023-07-13T06:41:15;5.65;;;2.40;;
80584;SDS011;70137;56.482;9.154;2023-07-13T06:43:41;8.13;;;2.28;;
80584;SDS011;70137;56.482;9.154;2023-07-13T06:46:06;7.57;;;2.10;;
80584;SDS011;70137;56.482;9.154;2023-07-13T06:48:32;9.32;;;2.63;;
80584;SDS011;70137;56.482;9.154;2023-07-13T06:50:57;6.75;;;2.38;;
80584;SDS011;70137;56.482;9.154;2023-07-13T06:53:23;10.20;;;2.65;;
80584;SDS011;70137;56.482;9.154;2023-07-13T06:55:49;15.52;;;2.70;;
80584;SDS011;70137;56.482;9.154;2023-07-13T06:58:15;4.72;;;1.95;;
80584;SDS011;70137;56.482;9.154;2023-07-13T07:00:41;6.43;;;2.42;;
80584;SDS011;70137;56.482;9.154;2023-07-13T07:03:07;7.03;;;1.90;;
80584;SDS011;70137;56.482;9.154;2023-07-13T07:05:32;8.90;;;1.80;;
80584;SDS011;70137;56.482;9.154;2023-07-13T07:07:58;9.77;;;2.13;;
80584;SDS011;70137;56.482;9.154;2023-07-13T07:10:24;12.07;;;2.00;;
80584;SDS011;70137;56.482;9.154;2023-07-13T07:12:50;4.95;;;1.80;;
80584;SDS011;70137;56.482;9.154;2023-07-13T07:15:16;7.35;;;1.77;;
80584;SDS011;70137;56.482;9.154;2023-07-13T07:17:43;8.88;;;2.08;;
80584;SDS011;70137;56.482;9.154;2023-07-13T07:20:09;5.80;;;1.90;;
80584;SDS011;70137;56.482;9.154;2023-07-13T07:22:35;4.03;;;1.60;;
80584;SDS011;70137;56.482;9.154;2023-07-13T07:25:00;4.97;;;1.83;;
80584;SDS011;70137;56.482;9.154;2023-07-13T07:27:26;10.73;;;1.60;;
80584;SDS011;70137;56.482;9.154;2023-07-13T07:29:51;7.45;;;1.42;;
80584;SDS011;70137;56.482;9.154;2023-07-13T07:32:17;5.15;;;1.45;;
80584;SDS011;70137;56.482;9.154;2023-07-13T07:34:44;5.85;;;1.30;;
80584;SDS011;70137;56.482;9.154;2023-07-13T07:37:10;4.75;;;1.70;;
80584;SDS011;70137;56.482;9.154;2023-07-13T07:39:36;9.02;;;1.80;;
80584;SDS011;70137;56.482;9.154;2023-07-13T07:42:03;4.78;;;1.75;;
80584;SDS011;70137;56.482;9.154;2023-07-13T07:44:28;5.60;;;1.55;;
80584;SDS011;70137;56.482;9.154;2023-07-13T07:46:56;10.88;;;1.90;;
80584;SDS011;70137;56.482;9.154;2023-07-13T07:49:21;8.73;;;2.10;;
80584;SDS011;70137;56.482;9.154;2023-07-13T07:51:46;7.22;;;1.98;;
80584;SDS011;70137;56.482;9.154;2023-07-13T07:54:12;4.20;;;1.40;;
80584;SDS011;70137;56.482;9.154;2023-07-13T07:56:38;6.13;;;1.38;;
80584;SDS011;70137;56.482;9.154;2023-07-13T07:59:03;6.53;;;1.42;;
80584;SDS011;70137;56.482;9.154;2023-07-13T08:01:29;8.95;;;1.40;;
80584;SDS011;70137;56.482;9.154;2023-07-13T08:03:54;4.80;;;1.40;;
80584;SDS011;70137;56.482;9.154;2023-07-13T08:06:20;5.15;;;1.00;;
80584;SDS011;70137;56.482;9.154;2023-07-13T08:08:47;7.68;;;1.27;;
80584;SDS011;70137;56.482;9.154;2023-07-13T08:11:12;4.38;;;0.95;;
80584;SDS011;70137;56.482;9.154;2023-07-13T08:13:38;2.83;;;0.80;;
80584;SDS011;70137;56.482;9.154;2023-07-13T08:16:04;6.75;;;1.17;;
80584;SDS011;70137;56.482;9.154;2023-07-13T08:18:31;2.88;;;0.80;;
80584;SDS011;70137;56.482;9.154;2023-07-13T08:20:57;4.10;;;1.17;;
80584;SDS011;70137;56.482;9.154;2023-07-13T08:23:24;7.60;;;1.42;;
80584;SDS011;70137;56.482;9.154;2023-07-13T08:25:51;4.18;;;1.17;;
80584;SDS011;70137;56.482;9.154;2023-07-13T08:28:18;3.47;;;0.80;;
80584;SDS011;70137;56.482;9.154;2023-07-13T08:30:45;5.00;;;0.90;;
80584;SDS011;70137;56.482;9.154;2023-07-13T08:33:14;2.20;;;0.85;;
80584;SDS011;70137;56.482;9.154;2023-07-13T08:35:40;4.22;;;0.68;;
80584;SDS011;70137;56.482;9.154;2023-07-13T08:38:05;4.68;;;0.80;;
80584;SDS011;70137;56.482;9.154;2023-07-13T08:40:31;2.95;;;0.70;;
80584;SDS011;70137;56.482;9.154;2023-07-13T08:42:59;2.53;;;0.70;;
80584;SDS011;70137;56.482;9.154;2023-07-13T08:45:38;3.78;;;0.68;;
80584;SDS011;70137;56.482;9.154;2023-07-13T08:48:09;3.00;;;1.15;;
80584;SDS011;70137;56.482;9.154;2023-07-13T08:53:22;4.28;;;0.70;;
80584;SDS011;70137;56.482;9.154;2023-07-13T08:55:51;4.22;;;0.93;;
80584;SDS011;70137;56.482;9.154;2023-07-13T08:58:23;3.47;;;0.52;;
80584;SDS011;70137;56.482;9.154;2023-07-13T09:04:15;5.00;;;0.88;;
80584;SDS011;70137;56.482;9.154;2023-07-13T09:11:54;5.57;;;0.90;;
80584;SDS011;70137;56.482;9.154;2023-07-13T09:16:55;4.65;;;0.75;;
80584;SDS011;70137;56.482;9.154;2023-07-13T09:19:26;5.30;;;1.17;;
80584;SDS011;70137;56.482;9.154;2023-07-13T09:21:55;2.80;;;0.60;;
80584;SDS011;70137;56.482;9.154;2023-07-13T09:27:21;3.22;;;0.40;;
80584;SDS011;70137;56.482;9.154;2023-07-13T09:32:47;1.65;;;0.70;;
80584;SDS011;70137;56.482;9.154;2023-07-13T09:35:17;5.72;;;0.60;;
80584;SDS011;70137;56.482;9.154;2023-07-13T09:37:45;3.67;;;0.60;;
80584;SDS011;70137;56.482;9.154;2023-07-13T09:40:18;4.00;;;0.63;;
80584;SDS011;70137;56.482;9.154;2023-07-13T09:42:51;2.88;;;0.70;;
80584;SDS011;70137;56.482;9.154;2023-07-13T09:45:28;2.42;;;0.60;;
80584;SDS011;70137;56.482;9.154;2023-07-13T09:47:58;2.40;;;0.60;;
80584;SDS011;70137;56.482;9.154;2023-07-13T09:50:28;3.30;;;0.70;;
80584;SDS011;70137;56.482;9.154;2023-07-13T09:52:54;3.17;;;0.60;;
80584;SDS011;70137;56.482;9.154;2023-07-13T09:55:24;2.88;;;0.73;;
80584;SDS011;70137;56.482;9.154;2023-07-13T09:57:53;4.68;;;0.75;;
80584;SDS011;70137;56.482;9.154;2023-07-13T10:00:24;4.65;;;0.70;;
80584;SDS011;70137;56.482;9.154;2023-07-13T10:05:37;6.30;;;0.70;;
80584;SDS011;70137;56.482;9.154;2023-07-13T10:08:04;4.13;;;0.90;;
80584;SDS011;70137;56.482;9.154;2023-07-13T10:10:32;4.68;;;0.70;;
80584;SDS011;70137;56.482;9.154;2023-07-13T10:13:00;1.65;;;0.47;;
80584;SDS011;70137;56.482;9.154;2023-07-13T10:15:26;3.20;;;0.65;;
80584;SDS011;70137;56.482;9.154;2023-07-13T10:17:53;5.50;;;0.80;;
80584;SDS011;70137;56.482;9.154;2023-07-13T10:20:20;3.85;;;0.70;;
80584;SDS011;70137;56.482;9.154;2023-07-13T10:25:31;3.55;;;0.60;;
80584;SDS011;70137;56.482;9.154;2023-07-13T10:28:10;6.43;;;0.75;;
80584;SDS011;70137;56.482;9.154;2023-07-13T10:30:44;1.58;;;0.55;;
80584;SDS011;70137;56.482;9.154;2023-07-13T10:33:12;2.97;;;0.60;;
80584;SDS011;70137;56.482;9.154;2023-07-13T10:35:40;2.85;;;0.50;;
80584;SDS011;70137;56.482;9.154;2023-07-13T10:38:13;2.33;;;0.70;;
80584;SDS011;70137;56.482;9.154;2023-07-13T10:40:44;4.15;;;0.52;;
80584;SDS011;70137;56.482;9.154;2023-07-13T10:43:18;5.60;;;0.90;;
80584;SDS011;70137;56.482;9.154;2023-07-13T10:45:51;3.08;;;0.82;;
80584;SDS011;70137;56.482;9.154;2023-07-13T10:48:19;2.08;;;0.68;;
80584;SDS011;70137;56.482;9.154;2023-07-13T10:50:48;2.30;;;0.70;;
80584;SDS011;70137;56.482;9.154;2023-07-13T10:53:20;3.10;;;0.65;;
80584;SDS011;70137;56.482;9.154;2023-07-13T10:56:03;2.95;;;0.70;;
80584;SDS011;70137;56.482;9.154;2023-07-13T10:58:37;2.45;;;0.80;;
80584;SDS011;70137;56.482;9.154;2023-07-13T11:01:09;2.25;;;0.60;;
80584;SDS011;70137;56.482;9.154;2023-07-13T11:08:59;3.60;;;0.50;;
80584;SDS011;70137;56.482;9.154;2023-07-13T11:11:43;3.65;;;0.63;;
80584;SDS011;70137;56.482;9.154;2023-07-13T11:19:56;2.20;;;0.65;;
80584;SDS011;70137;56.482;9.154;2023-07-13T11:22:52;6.18;;;0.60;;
80584;SDS011;70137;56.482;9.154;2023-07-13T11:25:41;3.47;;;0.80;;
80584;SDS011;70137;56.482;9.154;2023-07-13T11:30:37;2.35;;;0.60;;
80584;SDS011;70137;56.482;9.154;2023-07-13T11:36:23;4.95;;;0.98;;
80584;SDS011;70137;56.482;9.154;2023-07-13T11:38:35;1.85;;;0.65;;
80584;SDS011;70137;56.482;9.154;2023-07-13T11:41:05;2.45;;;0.77;;
80584;SDS011;70137;56.482;9.154;2023-07-13T11:43:40;2.42;;;0.52;;
80584;SDS011;70137;56.482;9.154;2023-07-13T11:46:18;1.95;;;0.60;;
80584;SDS011;70137;56.482;9.154;2023-07-13T11:48:46;2.65;;;0.80;;
80584;SDS011;70137;56.482;9.154;2023-07-13T11:51:29;3.47;;;1.00;;
80584;SDS011;70137;56.482;9.154;2023-07-13T11:53:57;2.42;;;0.90;;
80584;SDS011;70137;56.482;9.154;2023-07-13T11:56:28;2.90;;;0.80;;
80584;SDS011;70137;56.482;9.154;2023-07-13T11:58:56;3.65;;;0.73;;
80584;SDS011;70137;56.482;9.154;2023-07-13T12:01:29;2.60;;;0.80;;
80584;SDS011;70137;56.482;9.154;2023-07-13T12:03:58;1.27;;;1.00;;
80584;SDS011;70137;56.482;9.154;2023-07-13T12:09:02;3.08;;;1.70;;
80584;SDS011;70137;56.482;9.154;2023-07-13T12:11:40;3.80;;;1.30;;
80584;SDS011;70137;56.482;9.154;2023-07-13T12:14:17;2.10;;;1.40;;
80584;SDS011;70137;56.482;9.154;2023-07-13T12:16:45;5.72;;;1.83;;
80584;SDS011;70137;56.482;9.154;2023-07-13T12:19:21;4.70;;;1.70;;
80584;SDS011;70137;56.482;9.154;2023-07-13T12:21:56;4.25;;;1.40;;
80584;SDS011;70137;56.482;9.154;2023-07-13T12:24:23;2.85;;;1.30;;
80584;SDS011;70137;56.482;9.154;2023-07-13T12:27:00;4.47;;;1.70;;
80584;SDS011;70137;56.482;9.154;2023-07-13T12:29:28;3.88;;;1.15;;
80584;SDS011;70137;56.482;9.154;2023-07-13T12:31:54;2.92;;;1.50;;
80584;SDS011;70137;56.482;9.154;2023-07-13T12:34:22;5.32;;;1.50;;
80584;SDS011;70137;56.482;9.154;2023-07-13T12:39:37;3.07;;;1.17;;
80584;SDS011;70137;56.482;9.154;2023-07-13T12:42:29;3.67;;;1.40;;
80584;SDS011;70137;56.482;9.154;2023-07-13T12:47:22;8.27;;;1.48;;
80584;SDS011;70137;56.482;9.154;2023-07-13T12:49:49;5.53;;;1.40;;
80584;SDS011;70137;56.482;9.154;2023-07-13T12:52:32;3.78;;;1.42;;
80584;SDS011;70137;56.482;9.154;2023-07-13T12:55:04;5.25;;;1.70;;
80584;SDS011;70137;56.482;9.154;2023-07-13T12:57:40;7.63;;;1.40;;
80584;SDS011;70137;56.482;9.154;2023-07-13T13:00:41;3.40;;;1.45;;
80584;SDS011;70137;56.482;9.154;2023-07-13T13:05:44;4.38;;;1.05;;
80584;SDS011;70137;56.482;9.154;2023-07-13T13:08:11;5.20;;;1.20;;
80584;SDS011;70137;56.482;9.154;2023-07-13T13:10:37;3.22;;;1.20;;
80584;SDS011;70137;56.482;9.154;2023-07-13T13:13:02;3.13;;;0.95;;
80584;SDS011;70137;56.482;9.154;2023-07-13T13:15:28;3.05;;;1.10;;
80584;SDS011;70137;56.482;9.154;2023-07-13T13:17:55;5.70;;;1.50;;
80584;SDS011;70137;56.482;9.154;2023-07-13T13:20:21;5.22;;;1.42;;
80584;SDS011;70137;56.482;9.154;2023-07-13T13:22:48;4.15;;;1.60;;
80584;SDS011;70137;56.482;9.154;2023-07-13T13:25:14;4.50;;;1.45;;
80584;SDS011;70137;56.482;9.154;2023-07-13T13:27:43;4.20;;;1.23;;
80584;SDS011;70137;56.482;9.154;2023-07-13T13:30:16;4.50;;;1.20;;
80584;SDS011;70137;56.482;9.154;2023-07-13T13:32:43;5.03;;;1.30;;
80584;SDS011;70137;56.482;9.154;2023-07-13T13:35:18;2.97;;;1.20;;
80584;SDS011;70137;56.482;9.154;2023-07-13T13:37:45;5.47;;;1.50;;
80584;SDS011;70137;56.482;9.154;2023-07-13T13:42:42;7.43;;;1.30;;
80584;SDS011;70137;56.482;9.154;2023-07-13T13:45:09;5.47;;;1.40;;
80584;SDS011;70137;56.482;9.154;2023-07-13T13:47:35;4.03;;;1.40;;
80584;SDS011;70137;56.482;9.154;2023-07-13T13:50:04;5.40;;;1.30;;
80584;SDS011;70137;56.482;9.154;2023-07-13T13:52:37;3.35;;;1.42;;
80584;SDS011;70137;56.482;9.154;2023-07-13T13:55:05;6.28;;;1.67;;
80584;SDS011;70137;56.482;9.154;2023-07-13T13:57:37;4.72;;;1.20;;
80584;SDS011;70137;56.482;9.154;2023-07-13T14:00:02;6.50;;;1.65;;
80584;SDS011;70137;56.482;9.154;2023-07-13T14:02:28;5.47;;;1.40;;
80584;SDS011;70137;56.482;9.154;2023-07-13T14:04:58;5.82;;;1.52;;
80584;SDS011;70137;56.482;9.154;2023-07-13T14:07:25;5.00;;;1.35;;
80584;SDS011;70137;56.482;9.154;2023-07-13T14:09:54;5.55;;;1.63;;
80584;SDS011;70137;56.482;9.154;2023-07-13T14:12:22;6.07;;;1.70;;
80584;SDS011;70137;56.482;9.154;2023-07-13T14:14:51;4.88;;;1.30;;
80584;SDS011;70137;56.482;9.154;2023-07-13T14:17:20;2.97;;;1.30;;
80584;SDS011;70137;56.482;9.154;2023-07-13T14:19:49;3.92;;;1.58;;
80584;SDS011;70137;56.482;9.154;2023-07-13T14:22:17;5.15;;;1.40;;
80584;SDS011;70137;56.482;9.154;2023-07-13T14:24:43;6.55;;;1.50;;
80584;SDS011;70137;56.482;9.154;2023-07-13T14:27:11;5.13;;;1.73;;
80584;SDS011;70137;56.482;9.154;2023-07-13T14:29:37;9.35;;;2.20;;
80584;SDS011;70137;56.482;9.154;2023-07-13T14:32:04;3.72;;;1.40;;
80584;SDS011;70137;56.482;9.154;2023-07-13T14:34:31;3.97;;;1.40;;
80584;SDS011;70137;56.482;9.154;2023-07-13T14:36:56;5.65;;;1.30;;
80584;SDS011;70137;56.482;9.154;2023-07-13T14:39:22;7.65;;;2.13;;
80584;SDS011;70137;56.482;9.154;2023-07-13T14:41:50;4.85;;;1.40;;
80584;SDS011;70137;56.482;9.154;2023-07-13T14:44:17;5.63;;;1.58;;
80584;SDS011;70137;56.482;9.154;2023-07-13T14:46:45;3.35;;;1.23;;
80584;SDS011;70137;56.482;9.154;2023-07-13T14:49:31;3.97;;;1.40;;
80584;SDS011;70137;56.482;9.154;2023-07-13T14:52:23;2.42;;;1.10;;
80584;SDS011;70137;56.482;9.154;2023-07-13T14:54:48;3.08;;;1.30;;
80584;SDS011;70137;56.482;9.154;2023-07-13T14:57:15;3.97;;;1.33;;
80584;SDS011;70137;56.482;9.154;2023-07-13T14:59:42;4.30;;;1.40;;
80584;SDS011;70137;56.482;9.154;2023-07-13T15:02:14;5.45;;;1.20;;
80584;SDS011;70137;56.482;9.154;2023-07-13T15:04:42;4.28;;;1.30;;
80584;SDS011;70137;56.482;9.154;2023-07-13T15:07:09;2.33;;;1.20;;
80584;SDS011;70137;56.482;9.154;2023-07-13T15:09:36;3.90;;;1.40;;
80584;SDS011;70137;56.482;9.154;2023-07-13T15:12:02;3.90;;;1.10;;
80584;SDS011;70137;56.482;9.154;2023-07-13T15:14:27;6.20;;;1.20;;
80584;SDS011;70137;56.482;9.154;2023-07-13T15:16:54;4.75;;;1.50;;
80584;SDS011;70137;56.482;9.154;2023-07-13T15:19:21;3.47;;;1.35;;
80584;SDS011;70137;56.482;9.154;2023-07-13T15:21:48;4.50;;;1.20;;
80584;SDS011;70137;56.482;9.154;2023-07-13T15:24:14;4.75;;;1.40;;
80584;SDS011;70137;56.482;9.154;2023-07-13T15:26:40;3.65;;;1.45;;
80584;SDS011;70137;56.482;9.154;2023-07-13T15:29:10;3.88;;;1.55;;
80584;SDS011;70137;56.482;9.154;2023-07-13T15:31:35;5.00;;;1.40;;
80584;SDS011;70137;56.482;9.154;2023-07-13T15:34:03;6.70;;;1.27;;
80584;SDS011;70137;56.482;9.154;2023-07-13T15:36:34;4.28;;;1.30;;
80584;SDS011;70137;56.482;9.154;2023-07-13T15:39:00;5.13;;;1.60;;
80584;SDS011;70137;56.482;9.154;2023-07-13T15:41:26;4.00;;;1.50;;
80584;SDS011;70137;56.482;9.154;2023-07-13T15:43:54;5.68;;;1.63;;
80584;SDS011;70137;56.482;9.154;2023-07-13T15:46:25;1.90;;;1.10;;